sensor_id;sensor_type;location;lat;lon;timestamp;P1;durP1;ratioP1;P2;durP2;ratioP2
27187;SDS011;14708;50.872;5.306;2023-10-13T00:01:58;9.88;;;6.30;;
27187;SDS011;14708;50.872;5.306;2023-10-13T00:04:33;10.48;;;6.65;;
27187;SDS011;14708;50.872;5.306;2023-10-13T00:07:02;8.13;;;6.25;;
27187;SDS011;14708;50.872;5.306;2023-10-13T00:09:29;9.07;;;5.97;;
27187;SDS011;14708;50.872;5.306;2023-10-13T00:11:58;10.82;;;6.53;;
27187;SDS011;14708;50.872;5.306;2023-10-13T00:14:25;9.35;;;6.25;;
27187;SDS011;14708;50.872;5.306;2023-10-13T00:17:00;9.50;;;6.13;;
27187;SDS011;14708;50.872;5.306;2023-10-13T00:19:33;8.13;;;5.32;;
27187;SDS011;14708;50.872;5.306;2023-10-13T00:22:07;8.80;;;5.75;;
27187;SDS011;14708;50.872;5.306;2023-10-13T00:24:52;8.52;;;5.78;;
27187;SDS011;14708;50.872;5.306;2023-10-13T00:27:23;8.70;;;6.07;;
27187;SDS011;14708;50.872;5.306;2023-10-13T00:30:02;9.13;;;5.78;;
27187;SDS011;14708;50.872;5.306;2023-10-13T00:33:00;10.50;;;6.13;;
27187;SDS011;14708;50.872;5.306;2023-10-13T00:35:27;9.05;;;5.97;;
27187;SDS011;14708;50.872;5.306;2023-10-13T00:37:57;10.30;;;5.57;;
27187;SDS011;14708;50.872;5.306;2023-10-13T00:40:28;7.93;;;5.78;;
27187;SDS011;14708;50.872;5.306;2023-10-13T00:42:55;9.43;;;6.45;;
27187;SDS011;14708;50.872;5.306;2023-10-13T00:45:31;9.13;;;5.75;;
27187;SDS011;14708;50.872;5.306;2023-10-13T00:47:59;9.48;;;6.15;;
27187;SDS011;14708;50.872;5.306;2023-10-13T00:50:26;9.48;;;6.13;;
27187;SDS011;14708;50.872;5.306;2023-10-13T00:52:54;8.05;;;5.60;;
27187;SDS011;14708;50.872;5.306;2023-10-13T00:55:20;9.85;;;6.32;;
27187;SDS011;14708;50.872;5.306;2023-10-13T00:57:58;8.98;;;6.10;;
27187;SDS011;14708;50.872;5.306;2023-10-13T01:00:29;10.30;;;6.05;;
27187;SDS011;14708;50.872;5.306;2023-10-13T01:02:55;7.97;;;5.45;;
27187;SDS011;14708;50.872;5.306;2023-10-13T01:05:24;8.35;;;5.25;;
27187;SDS011;14708;50.872;5.306;2023-10-13T01:07:50;7.30;;;5.38;;
27187;SDS011;14708;50.872;5.306;2023-10-13T01:10:23;10.32;;;6.20;;
27187;SDS011;14708;50.872;5.306;2023-10-13T01:12:52;9.32;;;6.15;;
27187;SDS011;14708;50.872;5.306;2023-10-13T01:15:19;11.65;;;6.43;;
27187;SDS011;14708;50.872;5.306;2023-10-13T01:17:48;8.60;;;5.67;;
27187;SDS011;14708;50.872;5.306;2023-10-13T01:20:16;11.73;;;6.82;;
27187;SDS011;14708;50.872;5.306;2023-10-13T01:23:04;8.85;;;5.68;;
27187;SDS011;14708;50.872;5.306;2023-10-13T01:25:35;7.85;;;5.43;;
27187;SDS011;14708;50.872;5.306;2023-10-13T01:28:01;8.13;;;5.78;;
27187;SDS011;14708;50.872;5.306;2023-10-13T01:30:26;9.02;;;5.75;;
27187;SDS011;14708;50.872;5.306;2023-10-13T01:32:52;8.90;;;5.82;;
27187;SDS011;14708;50.872;5.306;2023-10-13T01:35:25;8.45;;;5.55;;
27187;SDS011;14708;50.872;5.306;2023-10-13T01:38:00;8.55;;;5.75;;
27187;SDS011;14708;50.872;5.306;2023-10-13T01:40:25;8.02;;;5.50;;
27187;SDS011;14708;50.872;5.306;2023-10-13T01:42:54;8.77;;;5.45;;
27187;SDS011;14708;50.872;5.306;2023-10-13T01:45:20;7.85;;;5.63;;
27187;SDS011;14708;50.872;5.306;2023-10-13T01:47:46;6.93;;;5.07;;
27187;SDS011;14708;50.872;5.306;2023-10-13T01:50:15;8.50;;;6.15;;
27187;SDS011;14708;50.872;5.306;2023-10-13T01:52:47;9.13;;;5.78;;
27187;SDS011;14708;50.872;5.306;2023-10-13T01:55:13;9.00;;;5.25;;
27187;SDS011;14708;50.872;5.306;2023-10-13T01:57:39;8.07;;;5.05;;
27187;SDS011;14708;50.872;5.306;2023-10-13T02:00:07;10.57;;;6.32;;
27187;SDS011;14708;50.872;5.306;2023-10-13T02:02:44;7.35;;;4.90;;
27187;SDS011;14708;50.872;5.306;2023-10-13T02:05:14;7.80;;;5.78;;
27187;SDS011;14708;50.872;5.306;2023-10-13T02:07:42;8.30;;;5.22;;
27187;SDS011;14708;50.872;5.306;2023-10-13T02:10:10;6.72;;;5.03;;
27187;SDS011;14708;50.872;5.306;2023-10-13T02:12:37;7.70;;;4.80;;
27187;SDS011;14708;50.872;5.306;2023-10-13T02:15:12;9.02;;;5.68;;
27187;SDS011;14708;50.872;5.306;2023-10-13T02:17:51;7.35;;;5.07;;
27187;SDS011;14708;50.872;5.306;2023-10-13T02:20:19;7.37;;;5.10;;
27187;SDS011;14708;50.872;5.306;2023-10-13T02:22:48;7.60;;;5.15;;
27187;SDS011;14708;50.872;5.306;2023-10-13T02:25:15;8.00;;;5.07;;
27187;SDS011;14708;50.872;5.306;2023-10-13T02:28:02;8.50;;;5.72;;
27187;SDS011;14708;50.872;5.306;2023-10-13T02:30:27;6.75;;;5.00;;
27187;SDS011;14708;50.872;5.306;2023-10-13T02:32:54;7.07;;;5.00;;
27187;SDS011;14708;50.872;5.306;2023-10-13T02:35:27;7.40;;;4.95;;
27187;SDS011;14708;50.872;5.306;2023-10-13T02:38:07;6.75;;;5.13;;
27187;SDS011;14708;50.872;5.306;2023-10-13T02:40:36;7.50;;;4.90;;
27187;SDS011;14708;50.872;5.306;2023-10-13T02:43:05;7.85;;;4.97;;
27187;SDS011;14708;50.872;5.306;2023-10-13T02:45:31;9.18;;;5.53;;
27187;SDS011;14708;50.872;5.306;2023-10-13T02:48:00;8.38;;;5.60;;
27187;SDS011;14708;50.872;5.306;2023-10-13T02:50:39;7.55;;;5.20;;
27187;SDS011;14708;50.872;5.306;2023-10-13T02:53:11;7.47;;;5.43;;
27187;SDS011;14708;50.872;5.306;2023-10-13T02:58:17;7.47;;;5.13;;
27187;SDS011;14708;50.872;5.306;2023-10-13T03:00:43;6.32;;;4.90;;
27187;SDS011;14708;50.872;5.306;2023-10-13T03:03:09;7.28;;;5.50;;
27187;SDS011;14708;50.872;5.306;2023-10-13T03:05:35;8.10;;;5.22;;
27187;SDS011;14708;50.872;5.306;2023-10-13T03:08:04;7.30;;;4.97;;
27187;SDS011;14708;50.872;5.306;2023-10-13T03:10:30;7.50;;;5.05;;
27187;SDS011;14708;50.872;5.306;2023-10-13T03:12:57;7.18;;;4.85;;
27187;SDS011;14708;50.872;5.306;2023-10-13T03:15:23;6.47;;;4.53;;
27187;SDS011;14708;50.872;5.306;2023-10-13T03:17:56;5.68;;;4.68;;
27187;SDS011;14708;50.872;5.306;2023-10-13T03:20:23;7.15;;;4.97;;
27187;SDS011;14708;50.872;5.306;2023-10-13T03:22:55;9.88;;;5.32;;
27187;SDS011;14708;50.872;5.306;2023-10-13T03:25:21;7.18;;;4.60;;
27187;SDS011;14708;50.872;5.306;2023-10-13T03:28:07;9.43;;;4.85;;
27187;SDS011;14708;50.872;5.306;2023-10-13T03:33:03;8.52;;;5.55;;
27187;SDS011;14708;50.872;5.306;2023-10-13T03:35:35;7.13;;;4.70;;
27187;SDS011;14708;50.872;5.306;2023-10-13T03:38:06;6.93;;;4.75;;
27187;SDS011;14708;50.872;5.306;2023-10-13T03:40:41;9.43;;;5.40;;
27187;SDS011;14708;50.872;5.306;2023-10-13T03:43:13;8.73;;;5.47;;
27187;SDS011;14708;50.872;5.306;2023-10-13T03:45:42;6.55;;;4.93;;
27187;SDS011;14708;50.872;5.306;2023-10-13T03:48:09;5.90;;;4.90;;
27187;SDS011;14708;50.872;5.306;2023-10-13T03:50:52;6.63;;;5.03;;
27187;SDS011;14708;50.872;5.306;2023-10-13T03:53:40;9.38;;;4.75;;
27187;SDS011;14708;50.872;5.306;2023-10-13T03:56:28;7.15;;;4.72;;
27187;SDS011;14708;50.872;5.306;2023-10-13T03:59:06;7.03;;;4.78;;
27187;SDS011;14708;50.872;5.306;2023-10-13T04:01:43;6.63;;;5.07;;
27187;SDS011;14708;50.872;5.306;2023-10-13T04:04:15;7.32;;;5.22;;
27187;SDS011;14708;50.872;5.306;2023-10-13T04:07:01;6.97;;;5.53;;
27187;SDS011;14708;50.872;5.306;2023-10-13T04:09:33;6.28;;;4.10;;
27187;SDS011;14708;50.872;5.306;2023-10-13T04:12:12;5.45;;;4.40;;
27187;SDS011;14708;50.872;5.306;2023-10-13T04:14:44;7.55;;;5.20;;
27187;SDS011;14708;50.872;5.306;2023-10-13T04:17:19;7.05;;;4.75;;
27187;SDS011;14708;50.872;5.306;2023-10-13T04:22:33;6.22;;;4.15;;
27187;SDS011;14708;50.872;5.306;2023-10-13T04:25:22;9.02;;;4.53;;
27187;SDS011;14708;50.872;5.306;2023-10-13T04:27:57;6.10;;;4.28;;
27187;SDS011;14708;50.872;5.306;2023-10-13T04:30:45;6.72;;;4.25;;
27187;SDS011;14708;50.872;5.306;2023-10-13T04:36:07;5.70;;;4.53;;
27187;SDS011;14708;50.872;5.306;2023-10-13T04:38:53;7.38;;;4.70;;
27187;SDS011;14708;50.872;5.306;2023-10-13T04:41:40;7.03;;;4.72;;
27187;SDS011;14708;50.872;5.306;2023-10-13T04:44:15;7.47;;;4.47;;
27187;SDS011;14708;50.872;5.306;2023-10-13T04:47:00;6.38;;;5.30;;
27187;SDS011;14708;50.872;5.306;2023-10-13T04:49:30;6.10;;;4.35;;
27187;SDS011;14708;50.872;5.306;2023-10-13T04:52:08;7.35;;;5.05;;
27187;SDS011;14708;50.872;5.306;2023-10-13T04:54:35;4.70;;;4.07;;
27187;SDS011;14708;50.872;5.306;2023-10-13T04:57:15;8.10;;;4.57;;
27187;SDS011;14708;50.872;5.306;2023-10-13T04:59:48;5.13;;;4.40;;
27187;SDS011;14708;50.872;5.306;2023-10-13T05:02:33;6.65;;;4.28;;
27187;SDS011;14708;50.872;5.306;2023-10-13T05:05:07;6.82;;;4.68;;
27187;SDS011;14708;50.872;5.306;2023-10-13T05:07:43;6.03;;;4.40;;
27187;SDS011;14708;50.872;5.306;2023-10-13T05:10:28;5.47;;;4.00;;
27187;SDS011;14708;50.872;5.306;2023-10-13T05:13:13;5.00;;;4.18;;
27187;SDS011;14708;50.872;5.306;2023-10-13T05:15:57;6.50;;;5.00;;
27187;SDS011;14708;50.872;5.306;2023-10-13T05:18:41;5.20;;;4.57;;
27187;SDS011;14708;50.872;5.306;2023-10-13T05:21:25;5.55;;;4.30;;
27187;SDS011;14708;50.872;5.306;2023-10-13T05:24:10;5.80;;;4.28;;
27187;SDS011;14708;50.872;5.306;2023-10-13T05:26:54;5.38;;;3.83;;
27187;SDS011;14708;50.872;5.306;2023-10-13T05:29:39;4.65;;;3.92;;
27187;SDS011;14708;50.872;5.306;2023-10-13T05:32:27;7.63;;;4.83;;
27187;SDS011;14708;50.872;5.306;2023-10-13T05:35:12;5.75;;;3.88;;
27187;SDS011;14708;50.872;5.306;2023-10-13T05:37:57;5.90;;;4.10;;
27187;SDS011;14708;50.872;5.306;2023-10-13T05:40:51;5.10;;;3.75;;
27187;SDS011;14708;50.872;5.306;2023-10-13T05:43:36;6.28;;;4.43;;
27187;SDS011;14708;50.872;5.306;2023-10-13T05:46:21;6.00;;;4.55;;
27187;SDS011;14708;50.872;5.306;2023-10-13T05:48:53;4.85;;;4.32;;
27187;SDS011;14708;50.872;5.306;2023-10-13T05:51:27;6.05;;;4.38;;
27187;SDS011;14708;50.872;5.306;2023-10-13T05:53:58;4.93;;;4.30;;
27187;SDS011;14708;50.872;5.306;2023-10-13T05:56:40;5.10;;;3.88;;
27187;SDS011;14708;50.872;5.306;2023-10-13T05:59:33;6.00;;;4.20;;
27187;SDS011;14708;50.872;5.306;2023-10-13T06:02:19;5.53;;;4.25;;
27187;SDS011;14708;50.872;5.306;2023-10-13T06:05:04;5.70;;;4.05;;
27187;SDS011;14708;50.872;5.306;2023-10-13T06:07:50;4.43;;;4.03;;
27187;SDS011;14708;50.872;5.306;2023-10-13T06:10:35;6.57;;;4.75;;
27187;SDS011;14708;50.872;5.306;2023-10-13T06:13:20;5.25;;;4.15;;
27187;SDS011;14708;50.872;5.306;2023-10-13T06:19:12;5.00;;;3.35;;
27187;SDS011;14708;50.872;5.306;2023-10-13T06:21:56;5.40;;;3.88;;
27187;SDS011;14708;50.872;5.306;2023-10-13T06:24:43;5.57;;;4.40;;
27187;SDS011;14708;50.872;5.306;2023-10-13T06:27:27;5.30;;;4.53;;
27187;SDS011;14708;50.872;5.306;2023-10-13T06:30:12;5.38;;;3.63;;
27187;SDS011;14708;50.872;5.306;2023-10-13T06:32:37;5.07;;;3.30;;
27187;SDS011;14708;50.872;5.306;2023-10-13T06:35:05;6.38;;;4.07;;
27187;SDS011;14708;50.872;5.306;2023-10-13T06:37:40;6.47;;;3.30;;
27187;SDS011;14708;50.872;5.306;2023-10-13T06:40:10;5.60;;;3.60;;
27187;SDS011;14708;50.872;5.306;2023-10-13T06:42:55;6.22;;;3.70;;
27187;SDS011;14708;50.872;5.306;2023-10-13T06:45:36;5.55;;;3.35;;
27187;SDS011;14708;50.872;5.306;2023-10-13T06:48:02;6.70;;;4.18;;
27187;SDS011;14708;50.872;5.306;2023-10-13T06:50:29;6.38;;;4.20;;
27187;SDS011;14708;50.872;5.306;2023-10-13T06:53:04;6.90;;;4.25;;
27187;SDS011;14708;50.872;5.306;2023-10-13T06:55:30;8.13;;;3.90;;
27187;SDS011;14708;50.872;5.306;2023-10-13T06:58:07;6.18;;;3.85;;
27187;SDS011;14708;50.872;5.306;2023-10-13T07:00:38;11.05;;;4.43;;
27187;SDS011;14708;50.872;5.306;2023-10-13T07:03:18;7.25;;;4.07;;
27187;SDS011;14708;50.872;5.306;2023-10-13T07:05:50;5.30;;;4.10;;
27187;SDS011;14708;50.872;5.306;2023-10-13T07:08:17;7.68;;;4.38;;
27187;SDS011;14708;50.872;5.306;2023-10-13T07:10:51;5.03;;;3.78;;
27187;SDS011;14708;50.872;5.306;2023-10-13T07:13:32;8.00;;;4.13;;
27187;SDS011;14708;50.872;5.306;2023-10-13T07:16:03;7.22;;;3.60;;
27187;SDS011;14708;50.872;5.306;2023-10-13T07:18:38;6.22;;;4.03;;
27187;SDS011;14708;50.872;5.306;2023-10-13T07:21:14;6.32;;;4.32;;
27187;SDS011;14708;50.872;5.306;2023-10-13T07:23:40;7.90;;;3.95;;
27187;SDS011;14708;50.872;5.306;2023-10-13T07:26:25;7.90;;;4.47;;
27187;SDS011;14708;50.872;5.306;2023-10-13T07:28:51;7.32;;;4.53;;
27187;SDS011;14708;50.872;5.306;2023-10-13T07:31:25;6.25;;;3.67;;
27187;SDS011;14708;50.872;5.306;2023-10-13T07:33:52;6.43;;;4.63;;
27187;SDS011;14708;50.872;5.306;2023-10-13T07:36:21;7.90;;;4.13;;
27187;SDS011;14708;50.872;5.306;2023-10-13T07:38:58;5.05;;;3.75;;
27187;SDS011;14708;50.872;5.306;2023-10-13T07:41:46;11.25;;;3.80;;
27187;SDS011;14708;50.872;5.306;2023-10-13T07:44:17;5.90;;;3.92;;
27187;SDS011;14708;50.872;5.306;2023-10-13T07:46:49;7.13;;;4.68;;
27187;SDS011;14708;50.872;5.306;2023-10-13T07:49:25;9.98;;;4.72;;
27187;SDS011;14708;50.872;5.306;2023-10-13T07:51:58;29.77;;;9.27;;
27187;SDS011;14708;50.872;5.306;2023-10-13T07:54:44;22.42;;;7.30;;
27187;SDS011;14708;50.872;5.306;2023-10-13T07:57:29;31.30;;;9.45;;
27187;SDS011;14708;50.872;5.306;2023-10-13T07:59:55;32.08;;;10.90;;
27187;SDS011;14708;50.872;5.306;2023-10-13T08:02:33;34.22;;;10.40;;
27187;SDS011;14708;50.872;5.306;2023-10-13T08:05:15;27.80;;;10.13;;
27187;SDS011;14708;50.872;5.306;2023-10-13T08:07:54;28.25;;;9.73;;
27187;SDS011;14708;50.872;5.306;2023-10-13T08:10:21;41.15;;;11.35;;
27187;SDS011;14708;50.872;5.306;2023-10-13T08:12:55;32.95;;;10.35;;
27187;SDS011;14708;50.872;5.306;2023-10-13T08:15:23;35.97;;;11.10;;
27187;SDS011;14708;50.872;5.306;2023-10-13T08:17:59;39.88;;;12.00;;
27187;SDS011;14708;50.872;5.306;2023-10-13T08:20:30;48.00;;;12.38;;
27187;SDS011;14708;50.872;5.306;2023-10-13T08:23:01;35.97;;;11.60;;
27187;SDS011;14708;50.872;5.306;2023-10-13T08:25:42;34.47;;;12.77;;
27187;SDS011;14708;50.872;5.306;2023-10-13T08:28:26;34.38;;;12.02;;
27187;SDS011;14708;50.872;5.306;2023-10-13T08:31:07;32.03;;;10.43;;
27187;SDS011;14708;50.872;5.306;2023-10-13T08:33:47;38.95;;;11.25;;
27187;SDS011;14708;50.872;5.306;2023-10-13T08:36:13;24.60;;;9.80;;
27187;SDS011;14708;50.872;5.306;2023-10-13T08:38:55;23.10;;;9.43;;
27187;SDS011;14708;50.872;5.306;2023-10-13T08:41:41;28.17;;;10.00;;
27187;SDS011;14708;50.872;5.306;2023-10-13T08:44:23;25.88;;;8.85;;
27187;SDS011;14708;50.872;5.306;2023-10-13T08:47:03;36.05;;;9.82;;
27187;SDS011;14708;50.872;5.306;2023-10-13T08:49:31;25.83;;;9.10;;
27187;SDS011;14708;50.872;5.306;2023-10-13T08:52:07;20.73;;;8.85;;
27187;SDS011;14708;50.872;5.306;2023-10-13T08:54:55;21.20;;;8.75;;
27187;SDS011;14708;50.872;5.306;2023-10-13T08:57:59;22.95;;;9.10;;
27187;SDS011;14708;50.872;5.306;2023-10-13T09:00:39;25.23;;;9.60;;
27187;SDS011;14708;50.872;5.306;2023-10-13T09:03:20;22.92;;;9.00;;
27187;SDS011;14708;50.872;5.306;2023-10-13T09:06:03;20.85;;;8.43;;
27187;SDS011;14708;50.872;5.306;2023-10-13T09:08:31;19.05;;;8.00;;
27187;SDS011;14708;50.872;5.306;2023-10-13T09:11:31;24.15;;;8.32;;
27187;SDS011;14708;50.872;5.306;2023-10-13T09:14:02;20.88;;;8.32;;
27187;SDS011;14708;50.872;5.306;2023-10-13T09:16:28;19.27;;;7.93;;
27187;SDS011;14708;50.872;5.306;2023-10-13T09:19:06;18.05;;;8.45;;
27187;SDS011;14708;50.872;5.306;2023-10-13T09:21:38;20.73;;;7.78;;
27187;SDS011;14708;50.872;5.306;2023-10-13T09:24:11;19.95;;;9.18;;
27187;SDS011;14708;50.872;5.306;2023-10-13T09:26:47;14.98;;;8.00;;
27187;SDS011;14708;50.872;5.306;2023-10-13T09:29:18;17.95;;;7.88;;
27187;SDS011;14708;50.872;5.306;2023-10-13T09:31:45;21.80;;;9.30;;
27187;SDS011;14708;50.872;5.306;2023-10-13T09:34:19;22.90;;;8.82;;
27187;SDS011;14708;50.872;5.306;2023-10-13T09:36:50;16.15;;;7.30;;
27187;SDS011;14708;50.872;5.306;2023-10-13T09:39:22;13.95;;;7.07;;
27187;SDS011;14708;50.872;5.306;2023-10-13T09:42:16;21.40;;;8.95;;
27187;SDS011;14708;50.872;5.306;2023-10-13T09:44:43;17.42;;;8.90;;
27187;SDS011;14708;50.872;5.306;2023-10-13T09:47:16;14.45;;;8.50;;
27187;SDS011;14708;50.872;5.306;2023-10-13T09:49:49;16.63;;;7.53;;
27187;SDS011;14708;50.872;5.306;2023-10-13T09:52:22;12.90;;;7.45;;
27187;SDS011;14708;50.872;5.306;2023-10-13T09:57:34;14.85;;;7.25;;
27187;SDS011;14708;50.872;5.306;2023-10-13T10:00:12;12.63;;;7.13;;
27187;SDS011;14708;50.872;5.306;2023-10-13T10:02:54;16.23;;;6.25;;
27187;SDS011;14708;50.872;5.306;2023-10-13T10:05:27;16.95;;;7.63;;
27187;SDS011;14708;50.872;5.306;2023-10-13T10:07:59;13.45;;;7.35;;
27187;SDS011;14708;50.872;5.306;2023-10-13T10:19:24;12.77;;;6.68;;
27187;SDS011;14708;50.872;5.306;2023-10-13T10:22:00;12.80;;;7.68;;
27187;SDS011;14708;50.872;5.306;2023-10-13T10:24:41;13.88;;;6.50;;
27187;SDS011;14708;50.872;5.306;2023-10-13T10:27:11;14.35;;;7.00;;
27187;SDS011;14708;50.872;5.306;2023-10-13T10:29:52;10.40;;;6.78;;
27187;SDS011;14708;50.872;5.306;2023-10-13T10:32:18;10.77;;;7.20;;
27187;SDS011;14708;50.872;5.306;2023-10-13T10:34:44;10.70;;;7.57;;
27187;SDS011;14708;50.872;5.306;2023-10-13T10:37:10;13.15;;;7.50;;
27187;SDS011;14708;50.872;5.306;2023-10-13T10:39:38;20.17;;;7.25;;
27187;SDS011;14708;50.872;5.306;2023-10-13T10:42:14;11.48;;;7.28;;
27187;SDS011;14708;50.872;5.306;2023-10-13T10:44:41;14.23;;;7.72;;
27187;SDS011;14708;50.872;5.306;2023-10-13T10:47:12;9.02;;;6.35;;
27187;SDS011;14708;50.872;5.306;2023-10-13T10:50:01;15.55;;;8.07;;
27187;SDS011;14708;50.872;5.306;2023-10-13T10:52:44;11.70;;;7.40;;
27187;SDS011;14708;50.872;5.306;2023-10-13T10:55:11;12.98;;;7.45;;
27187;SDS011;14708;50.872;5.306;2023-10-13T10:57:39;15.30;;;7.43;;
27187;SDS011;14708;50.872;5.306;2023-10-13T11:00:18;10.23;;;6.13;;
27187;SDS011;14708;50.872;5.306;2023-10-13T11:03:03;11.90;;;6.05;;
27187;SDS011;14708;50.872;5.306;2023-10-13T11:05:30;13.23;;;6.53;;
27187;SDS011;14708;50.872;5.306;2023-10-13T11:07:58;11.40;;;6.50;;
27187;SDS011;14708;50.872;5.306;2023-10-13T11:10:24;13.35;;;6.65;;
27187;SDS011;14708;50.872;5.306;2023-10-13T11:12:56;17.77;;;7.15;;
27187;SDS011;14708;50.872;5.306;2023-10-13T11:15:43;22.15;;;7.55;;
27187;SDS011;14708;50.872;5.306;2023-10-13T11:18:12;14.60;;;7.13;;
27187;SDS011;14708;50.872;5.306;2023-10-13T11:20:47;14.10;;;7.35;;
27187;SDS011;14708;50.872;5.306;2023-10-13T11:23:19;15.05;;;6.97;;
27187;SDS011;14708;50.872;5.306;2023-10-13T11:25:56;12.48;;;8.13;;
27187;SDS011;14708;50.872;5.306;2023-10-13T11:28:25;16.50;;;7.78;;
27187;SDS011;14708;50.872;5.306;2023-10-13T11:30:53;15.13;;;6.73;;
27187;SDS011;14708;50.872;5.306;2023-10-13T11:33:46;10.75;;;6.65;;
27187;SDS011;14708;50.872;5.306;2023-10-13T11:36:12;13.20;;;6.43;;
27187;SDS011;14708;50.872;5.306;2023-10-13T11:38:47;13.23;;;7.95;;
27187;SDS011;14708;50.872;5.306;2023-10-13T11:41:13;16.90;;;7.55;;
27187;SDS011;14708;50.872;5.306;2023-10-13T11:46:14;12.07;;;7.18;;
27187;SDS011;14708;50.872;5.306;2023-10-13T11:48:55;18.30;;;6.95;;
27187;SDS011;14708;50.872;5.306;2023-10-13T11:51:30;14.35;;;6.78;;
27187;SDS011;14708;50.872;5.306;2023-10-13T11:54:00;14.55;;;6.93;;
27187;SDS011;14708;50.872;5.306;2023-10-13T11:56:25;15.60;;;6.50;;
27187;SDS011;14708;50.872;5.306;2023-10-13T11:58:51;14.80;;;7.10;;
27187;SDS011;14708;50.872;5.306;2023-10-13T12:01:17;17.65;;;7.32;;
27187;SDS011;14708;50.872;5.306;2023-10-13T12:03:43;17.55;;;7.43;;
27187;SDS011;14708;50.872;5.306;2023-10-13T12:06:31;14.60;;;7.38;;
27187;SDS011;14708;50.872;5.306;2023-10-13T12:09:02;16.20;;;6.53;;
27187;SDS011;14708;50.872;5.306;2023-10-13T12:11:43;10.23;;;5.35;;
27187;SDS011;14708;50.872;5.306;2023-10-13T12:14:15;16.55;;;7.07;;
27187;SDS011;14708;50.872;5.306;2023-10-13T12:16:48;18.00;;;7.13;;
27187;SDS011;14708;50.872;5.306;2023-10-13T12:19:16;14.88;;;6.55;;
27187;SDS011;14708;50.872;5.306;2023-10-13T12:21:43;13.30;;;6.40;;
27187;SDS011;14708;50.872;5.306;2023-10-13T12:24:09;19.88;;;7.55;;
27187;SDS011;14708;50.872;5.306;2023-10-13T12:26:56;12.68;;;5.80;;
27187;SDS011;14708;50.872;5.306;2023-10-13T12:29:23;10.88;;;5.82;;
27187;SDS011;14708;50.872;5.306;2023-10-13T12:31:53;14.30;;;5.82;;
27187;SDS011;14708;50.872;5.306;2023-10-13T12:34:36;14.82;;;6.60;;
27187;SDS011;14708;50.872;5.306;2023-10-13T12:37:32;15.18;;;6.68;;
27187;SDS011;14708;50.872;5.306;2023-10-13T12:40:13;16.48;;;6.35;;
27187;SDS011;14708;50.872;5.306;2023-10-13T12:42:59;10.35;;;7.20;;
27187;SDS011;14708;50.872;5.306;2023-10-13T12:45:44;15.50;;;6.60;;
27187;SDS011;14708;50.872;5.306;2023-10-13T12:48:30;15.27;;;7.53;;
27187;SDS011;14708;50.872;5.306;2023-10-13T12:51:15;13.93;;;6.18;;
27187;SDS011;14708;50.872;5.306;2023-10-13T12:53:47;18.20;;;7.70;;
27187;SDS011;14708;50.872;5.306;2023-10-13T12:56:14;12.18;;;6.50;;
27187;SDS011;14708;50.872;5.306;2023-10-13T12:58:41;15.88;;;6.88;;
27187;SDS011;14708;50.872;5.306;2023-10-13T13:01:24;18.10;;;6.60;;
27187;SDS011;14708;50.872;5.306;2023-10-13T13:03:57;11.05;;;5.68;;
27187;SDS011;14708;50.872;5.306;2023-10-13T13:06:24;9.70;;;4.90;;
27187;SDS011;14708;50.872;5.306;2023-10-13T13:08:54;12.02;;;6.28;;
27187;SDS011;14708;50.872;5.306;2023-10-13T13:11:24;18.48;;;6.55;;
27187;SDS011;14708;50.872;5.306;2023-10-13T13:13:49;13.45;;;5.68;;
27187;SDS011;14708;50.872;5.306;2023-10-13T13:16:16;10.90;;;4.97;;
27187;SDS011;14708;50.872;5.306;2023-10-13T13:19:01;14.82;;;6.03;;
27187;SDS011;14708;50.872;5.306;2023-10-13T13:21:38;11.10;;;6.15;;
27187;SDS011;14708;50.872;5.306;2023-10-13T13:24:03;15.95;;;5.38;;
27187;SDS011;14708;50.872;5.306;2023-10-13T13:26:35;14.73;;;6.50;;
27187;SDS011;14708;50.872;5.306;2023-10-13T13:29:05;13.45;;;6.25;;
27187;SDS011;14708;50.872;5.306;2023-10-13T13:31:34;16.55;;;6.32;;
27187;SDS011;14708;50.872;5.306;2023-10-13T13:34:06;12.65;;;5.22;;
27187;SDS011;14708;50.872;5.306;2023-10-13T13:36:35;9.20;;;5.20;;
27187;SDS011;14708;50.872;5.306;2023-10-13T13:39:00;9.88;;;5.57;;
27187;SDS011;14708;50.872;5.306;2023-10-13T13:41:27;15.68;;;7.88;;
27187;SDS011;14708;50.872;5.306;2023-10-13T13:43:58;13.13;;;6.50;;
27187;SDS011;14708;50.872;5.306;2023-10-13T13:46:38;15.70;;;7.65;;
27187;SDS011;14708;50.872;5.306;2023-10-13T13:49:06;12.75;;;6.88;;
27187;SDS011;14708;50.872;5.306;2023-10-13T13:51:39;16.80;;;7.28;;
27187;SDS011;14708;50.872;5.306;2023-10-13T13:54:04;14.73;;;7.63;;
27187;SDS011;14708;50.872;5.306;2023-10-13T13:56:32;17.00;;;7.70;;
27187;SDS011;14708;50.872;5.306;2023-10-13T13:59:03;10.90;;;6.57;;
27187;SDS011;14708;50.872;5.306;2023-10-13T14:01:35;12.30;;;7.07;;
27187;SDS011;14708;50.872;5.306;2023-10-13T14:04:10;16.83;;;7.28;;
27187;SDS011;14708;50.872;5.306;2023-10-13T14:06:36;17.55;;;8.13;;
27187;SDS011;14708;50.872;5.306;2023-10-13T14:09:03;17.88;;;7.80;;
27187;SDS011;14708;50.872;5.306;2023-10-13T14:11:39;12.98;;;7.32;;
27187;SDS011;14708;50.872;5.306;2023-10-13T14:14:06;17.40;;;6.25;;
27187;SDS011;14708;50.872;5.306;2023-10-13T14:16:43;12.00;;;7.15;;
27187;SDS011;14708;50.872;5.306;2023-10-13T14:19:12;17.95;;;8.52;;
27187;SDS011;14708;50.872;5.306;2023-10-13T14:21:55;14.27;;;7.63;;
27187;SDS011;14708;50.872;5.306;2023-10-13T14:24:21;13.45;;;8.20;;
27187;SDS011;14708;50.872;5.306;2023-10-13T14:26:59;13.13;;;8.18;;
27187;SDS011;14708;50.872;5.306;2023-10-13T14:29:42;13.35;;;7.68;;
27187;SDS011;14708;50.872;5.306;2023-10-13T14:32:08;13.07;;;8.57;;
27187;SDS011;14708;50.872;5.306;2023-10-13T14:34:37;11.52;;;7.65;;
27187;SDS011;14708;50.872;5.306;2023-10-13T14:37:03;13.02;;;8.32;;
27187;SDS011;14708;50.872;5.306;2023-10-13T14:39:30;13.68;;;8.38;;
27187;SDS011;14708;50.872;5.306;2023-10-13T14:41:58;13.82;;;8.48;;
27187;SDS011;14708;50.872;5.306;2023-10-13T14:44:25;13.10;;;8.15;;
27187;SDS011;14708;50.872;5.306;2023-10-13T14:46:52;14.68;;;7.57;;
27187;SDS011;14708;50.872;5.306;2023-10-13T14:49:20;8.68;;;7.75;;
27187;SDS011;14708;50.872;5.306;2023-10-13T14:51:46;11.80;;;7.82;;
27187;SDS011;14708;50.872;5.306;2023-10-13T14:54:11;11.50;;;7.97;;
27187;SDS011;14708;50.872;5.306;2023-10-13T14:56:39;16.00;;;9.05;;
27187;SDS011;14708;50.872;5.306;2023-10-13T14:59:07;12.48;;;7.82;;
27187;SDS011;14708;50.872;5.306;2023-10-13T15:01:42;13.18;;;7.13;;
27187;SDS011;14708;50.872;5.306;2023-10-13T15:04:08;17.55;;;8.10;;
27187;SDS011;14708;50.872;5.306;2023-10-13T15:06:34;13.30;;;7.75;;
27187;SDS011;14708;50.872;5.306;2023-10-13T15:09:00;11.05;;;7.63;;
27187;SDS011;14708;50.872;5.306;2023-10-13T15:11:28;15.73;;;8.40;;
27187;SDS011;14708;50.872;5.306;2023-10-13T15:14:05;14.80;;;8.13;;
27187;SDS011;14708;50.872;5.306;2023-10-13T15:16:34;12.27;;;8.13;;
27187;SDS011;14708;50.872;5.306;2023-10-13T15:18:59;8.93;;;7.00;;
27187;SDS011;14708;50.872;5.306;2023-10-13T15:21:28;10.60;;;7.07;;
27187;SDS011;14708;50.872;5.306;2023-10-13T15:23:59;14.43;;;7.85;;
27187;SDS011;14708;50.872;5.306;2023-10-13T15:26:29;10.88;;;7.55;;
27187;SDS011;14708;50.872;5.306;2023-10-13T15:28:55;10.90;;;7.68;;
27187;SDS011;14708;50.872;5.306;2023-10-13T15:31:22;15.50;;;8.88;;
27187;SDS011;14708;50.872;5.306;2023-10-13T15:33:51;11.45;;;7.20;;
27187;SDS011;14708;50.872;5.306;2023-10-13T15:36:22;10.40;;;7.63;;
27187;SDS011;14708;50.872;5.306;2023-10-13T15:38:57;13.98;;;8.65;;
27187;SDS011;14708;50.872;5.306;2023-10-13T15:41:24;14.55;;;7.90;;
27187;SDS011;14708;50.872;5.306;2023-10-13T15:43:51;10.32;;;7.53;;
27187;SDS011;14708;50.872;5.306;2023-10-13T15:46:18;10.02;;;7.78;;
27187;SDS011;14708;50.872;5.306;2023-10-13T15:48:48;15.73;;;8.13;;